createdAt,value
2023-01-09T00:01:39.663Z,99248.94
2023-01-09T00:04:06.896Z,99244.63
2023-01-09T00:06:33.691Z,99232.53
2023-01-09T00:09:00.158Z,99239.34
2023-01-09T00:11:26.878Z,99232.47
2023-01-09T00:13:53.376Z,99218.66
2023-01-09T00:16:19.833Z,99219.50
2023-01-09T00:18:46.440Z,99222.09
2023-01-09T00:21:13.382Z,99216.06
2023-01-09T00:23:39.928Z,99200.47
2023-01-09T00:26:08.933Z,99205.63
2023-01-09T00:28:35.994Z,99199.53
2023-01-09T00:31:03.992Z,99198.63
2023-01-09T00:33:36.261Z,99193.47
2023-01-09T00:36:02.981Z,99181.34
2023-01-09T00:38:29.440Z,99175.31
2023-01-09T00:40:56.371Z,99177.94
2023-01-09T00:43:24.336Z,99180.47
2023-01-09T00:45:51.007Z,99189.91
2023-01-09T00:48:24.983Z,99186.50
2023-01-09T00:50:52.040Z,99188.94
2023-01-09T00:53:21.077Z,99191.47
2023-01-09T00:55:47.487Z,99191.47
2023-01-09T00:58:13.997Z,99186.31
2023-01-09T01:00:40.468Z,99177.75
2023-01-09T01:03:06.880Z,99160.50
2023-01-09T01:05:51.875Z,99160.56
2023-01-09T01:08:19.501Z,99160.63
2023-01-09T01:10:47.174Z,99154.59
2023-01-09T01:13:14.190Z,99145.16
2023-01-09T01:15:42.930Z,99146.00
2023-01-09T01:18:10.349Z,99146.13
2023-01-09T01:20:37.095Z,99137.47
2023-01-09T01:23:03.567Z,99126.38
2023-01-09T01:25:29.970Z,99119.50
2023-01-09T01:27:56.404Z,99118.72
2023-01-09T01:30:22.875Z,99125.63
2023-01-09T01:32:49.399Z,99136.81
2023-01-09T01:35:15.916Z,99138.56
2023-01-09T01:37:42.445Z,99136.88
2023-01-09T01:40:10.441Z,99148.97
2023-01-09T01:42:36.976Z,99139.53
2023-01-09T01:45:13.678Z,99137.88
2023-01-09T01:47:57.226Z,99137.88
2023-01-09T01:50:49.530Z,99142.16
2023-01-09T01:53:20.042Z,99146.47
2023-01-09T01:56:05.348Z,99140.44
2023-01-09T01:58:34.476Z,99138.72
2023-01-09T02:01:01.242Z,99137.03
2023-01-09T02:03:28.510Z,99136.16
2023-01-09T02:05:55.121Z,99125.88
2023-01-09T02:08:21.811Z,99129.31
2023-01-09T02:10:49.394Z,99137.06
2023-01-09T02:13:15.936Z,99130.19
2023-01-09T02:16:17.837Z,99123.34
2023-01-09T02:18:59.500Z,99109.53
2023-01-09T02:21:45.556Z,99112.16
2023-01-09T02:24:53.805Z,99113.84
2023-01-09T02:28:01.020Z,99110.41
2023-01-09T02:30:49.292Z,99112.94
2023-01-09T02:33:50.832Z,99106.13
2023-01-09T02:36:25.432Z,99106.16
2023-01-09T02:39:14.999Z,99104.44
2023-01-09T02:41:59.403Z,99089.88
2023-01-09T02:44:30.666Z,99079.59
2023-01-09T02:47:31.749Z,99079.63
2023-01-09T02:50:00.661Z,99071.03
2023-01-09T02:52:41.262Z,99072.75
2023-01-09T02:55:10.657Z,99066.72
2023-01-09T02:57:47.714Z,99061.56
2023-01-09T03:00:42.016Z,99053.97
2023-01-09T03:03:10.329Z,99050.53
2023-01-09T03:05:44.853Z,99054.84
2023-01-09T03:08:18.519Z,99036.81
2023-01-09T03:11:07.708Z,99032.53
2023-01-09T03:13:40.088Z,99032.53
2023-01-09T03:16:08.745Z,99031.69
2023-01-09T03:18:36.399Z,99030.84
2023-01-09T03:21:03.393Z,99027.41
2023-01-09T03:23:49.581Z,99032.59
2023-01-09T03:26:16.065Z,99042.91
2023-01-09T03:28:42.718Z,99042.94
2023-01-09T03:31:09.331Z,99042.94
2023-01-09T03:33:35.875Z,99049.00
2023-01-09T03:36:02.561Z,99035.22
2023-01-09T03:38:29.057Z,99043.00
2023-01-09T03:40:55.651Z,99038.75
2023-01-09T03:43:22.219Z,99038.78
2023-01-09T03:45:48.707Z,99049.06
2023-01-09T03:48:15.354Z,99044.81
2023-01-09T03:50:45.818Z,99043.06
2023-01-09T03:53:13.170Z,99040.50
2023-01-09T03:55:40.904Z,99042.22
2023-01-09T03:58:07.361Z,99046.53
2023-01-09T04:00:33.804Z,99043.09
2023-01-09T04:03:00.297Z,99042.22
2023-01-09T04:05:26.830Z,99044.81
2023-01-09T04:07:53.401Z,99043.06
2023-01-09T04:10:19.940Z,99046.47
2023-01-09T04:12:46.395Z,99039.53
2023-01-09T04:15:12.945Z,99053.38
2023-01-09T04:17:39.425Z,99047.22
2023-01-09T04:20:06.403Z,99042.06
2023-01-09T04:22:32.880Z,99043.81
2023-01-09T04:24:59.357Z,99040.34
2023-01-09T04:27:25.877Z,99045.50
2023-01-09T04:29:52.338Z,99044.69
2023-01-09T04:32:18.780Z,99038.69
2023-01-09T04:34:45.270Z,99043.84
2023-01-09T04:37:11.833Z,99034.38
2023-01-09T04:39:38.509Z,99028.44
2023-01-09T04:42:05.034Z,99032.75
2023-01-09T04:44:31.466Z,99025.84
2023-01-09T04:46:59.089Z,99016.41
2023-01-09T04:49:25.655Z,99013.75
2023-01-09T04:51:52.133Z,99014.63
2023-01-09T04:54:18.658Z,99000.03
2023-01-09T04:56:45.204Z,98998.38
2023-01-09T04:59:11.887Z,98993.25
2023-01-09T05:01:38.484Z,98992.41
2023-01-09T05:04:05.278Z,98974.38
2023-01-09T05:06:31.963Z,98976.09
2023-01-09T05:08:58.538Z,98976.09
2023-01-09T05:11:25.614Z,98977.84
2023-01-09T05:13:53.008Z,98982.19
2023-01-09T05:16:19.791Z,98973.59
2023-01-09T05:18:46.228Z,98976.22
2023-01-09T05:21:12.885Z,98972.84
2023-01-09T05:23:39.475Z,98961.66
2023-01-09T05:26:06.280Z,98969.41
2023-01-09T05:28:33.135Z,98966.84
2023-01-09T05:31:00.641Z,98965.91
2023-01-09T05:33:27.177Z,98963.31
2023-01-09T05:35:53.646Z,98955.53
2023-01-09T05:38:20.166Z,98964.09
2023-01-09T05:40:46.633Z,98954.59
2023-01-09T05:43:13.187Z,98967.47
2023-01-09T05:45:39.706Z,98960.56
2023-01-09T05:48:06.517Z,98963.19
2023-01-09T05:50:32.950Z,98958.00
2023-01-09T05:52:59.467Z,98964.88
2023-01-09T05:55:25.982Z,98963.16
2023-01-09T05:57:52.497Z,98964.88
2023-01-09T06:00:19.314Z,98967.47
2023-01-09T06:02:45.875Z,98968.34
2023-01-09T06:05:12.426Z,98976.91
2023-01-09T06:07:40.699Z,98975.22
2023-01-09T06:10:14.977Z,98986.38
2023-01-09T06:12:44.727Z,98987.25
2023-01-09T06:15:11.566Z,98969.22
2023-01-09T06:17:38.069Z,98967.53
2023-01-09T06:20:04.949Z,98978.69
2023-01-09T06:22:31.395Z,98972.69
2023-01-09T06:24:57.868Z,98968.38
2023-01-09T06:27:24.346Z,98976.13
2023-01-09T06:29:50.785Z,98993.38
2023-01-09T06:32:17.308Z,98993.38
2023-01-09T06:34:43.777Z,98993.38
2023-01-09T06:37:10.328Z,98998.53
2023-01-09T06:39:36.798Z,98998.63
2023-01-09T06:42:03.475Z,98995.22
2023-01-09T06:44:30.111Z,98992.69
2023-01-09T06:46:56.586Z,98991.84
2023-01-09T06:49:24.790Z,98995.31
2023-01-09T06:51:51.657Z,98993.56
2023-01-09T06:54:18.728Z,99001.38
2023-01-09T06:56:45.417Z,99004.81
2023-01-09T06:59:12.445Z,99003.94
2023-01-09T07:01:39.799Z,99008.22
2023-01-09T07:04:08.129Z,99020.25
2023-01-09T07:06:34.727Z,99017.72
2023-01-09T07:09:01.354Z,99007.38
2023-01-09T07:11:27.823Z,99004.78
2023-01-09T07:13:54.333Z,99002.19
2023-01-09T07:16:20.860Z,99010.84
2023-01-09T07:18:47.316Z,99012.56
2023-01-09T07:21:14.000Z,99011.72
2023-01-09T07:23:40.469Z,99027.19
2023-01-09T07:26:06.926Z,99033.19
2023-01-09T07:28:33.387Z,99027.19
2023-01-09T07:31:02.572Z,99038.31
2023-01-09T07:33:29.188Z,99045.19
2023-01-09T07:35:56.707Z,99058.94
2023-01-09T07:38:23.156Z,99058.94
2023-01-09T07:40:49.682Z,99058.94
2023-01-09T07:43:16.220Z,99065.91
2023-01-09T07:45:42.901Z,99080.59
2023-01-09T07:48:10.538Z,99085.69
2023-01-09T07:50:37.027Z,99084.94
2023-01-09T07:53:03.504Z,99086.72
2023-01-09T07:55:30.060Z,99092.78
2023-01-09T07:57:56.528Z,99094.53
2023-01-09T08:00:23.050Z,99089.38
2023-01-09T08:02:53.818Z,99094.59
2023-01-09T08:05:21.157Z,99096.34
2023-01-09T08:07:48.064Z,99099.81
2023-01-09T08:10:14.871Z,99091.28
2023-01-09T08:12:44.543Z,99105.00
2023-01-09T08:15:11.728Z,99104.22
2023-01-09T08:17:40.183Z,99106.00
2023-01-09T08:20:06.773Z,99093.16
2023-01-09T08:22:33.246Z,99096.66
2023-01-09T08:24:59.751Z,99095.06
2023-01-09T08:27:26.201Z,99094.28
2023-01-09T08:29:52.701Z,99096.94
2023-01-09T08:32:19.177Z,99110.84
2023-01-09T08:34:45.731Z,99121.28
2023-01-09T08:37:12.203Z,99114.59
2023-01-09T08:39:38.793Z,99115.63
2023-01-09T08:42:23.818Z,99117.50
2023-01-09T08:45:08.981Z,99116.69
2023-01-09T08:47:35.538Z,99129.69
2023-01-09T08:50:02.303Z,99141.84
2023-01-09T08:52:30.669Z,99150.50
2023-01-09T08:54:57.346Z,99151.34
2023-01-09T08:57:24.409Z,99162.50
2023-01-09T08:59:50.953Z,99171.09
2023-01-09T09:02:17.462Z,99185.78
2023-01-09T09:04:44.433Z,99195.25
2023-01-09T09:07:11.392Z,99188.28
2023-01-09T09:09:37.852Z,99192.53
2023-01-09T09:12:04.530Z,99194.19
2023-01-09T09:14:49.538Z,99197.56
2023-01-09T09:17:16.013Z,99206.97
2023-01-09T09:19:42.808Z,99202.56
2023-01-09T09:22:09.241Z,99218.09
2023-01-09T09:24:35.719Z,99209.34
2023-01-09T09:27:02.179Z,99215.41
2023-01-09T09:29:28.656Z,99216.28
2023-01-09T09:31:55.175Z,99222.31
2023-01-09T09:34:22.596Z,99215.41
2023-01-09T09:36:49.074Z,99225.81
2023-01-09T09:39:15.612Z,99219.78
2023-01-09T09:42:21.019Z,99222.38
2023-01-09T09:45:08.022Z,99234.44
2023-01-09T09:48:05.381Z,99237.00
2023-01-09T09:51:14.439Z,99243.03
2023-01-09T09:53:57.153Z,99241.38
2023-01-09T09:56:24.248Z,99244.88
2023-01-09T09:59:21.092Z,99252.72
2023-01-09T10:02:01.012Z,99250.94
2023-01-09T10:04:32.186Z,99257.81
2023-01-09T10:07:06.678Z,99255.28
2023-01-09T10:09:57.576Z,99259.59
2023-01-09T10:12:31.709Z,99250.94
2023-01-09T10:15:00.312Z,99252.69
2023-01-09T10:17:47.385Z,99248.41
2023-01-09T10:20:56.072Z,99252.69
2023-01-09T10:23:49.811Z,99255.25
2023-01-09T10:26:19.240Z,99254.41
2023-01-09T10:29:13.933Z,99266.44
2023-01-09T10:31:49.655Z,99268.25
2023-01-09T10:34:30.355Z,99269.22
2023-01-09T10:37:06.787Z,99273.69
2023-01-09T10:40:25.750Z,99270.44
2023-01-09T10:43:09.280Z,99275.72
2023-01-09T10:45:47.138Z,99273.22
2023-01-09T10:48:36.549Z,99279.41
2023-01-09T10:51:16.281Z,99280.34
2023-01-09T10:53:49.064Z,99280.47
2023-01-09T10:56:18.950Z,99275.41
2023-01-09T10:58:45.468Z,99271.16
2023-01-09T11:01:11.945Z,99279.91
2023-01-09T11:03:39.117Z,99275.66
2023-01-09T11:06:26.450Z,99278.34
2023-01-09T11:08:55.921Z,99280.91
2023-01-09T11:11:37.079Z,99274.06
2023-01-09T11:14:17.651Z,99285.34
2023-01-09T11:17:04.456Z,99289.69
2023-01-09T11:19:33.256Z,99301.81
2023-01-09T11:22:17.065Z,99286.34
2023-01-09T11:24:44.242Z,99295.84
2023-01-09T11:27:13.725Z,99292.38
2023-01-09T11:29:41.106Z,99299.31
2023-01-09T11:32:21.188Z,99300.28
2023-01-09T11:34:49.053Z,99296.03
2023-01-09T11:37:25.292Z,99300.44
2023-01-09T11:39:52.023Z,99293.63
2023-01-09T11:42:41.115Z,99294.53
2023-01-09T11:45:18.648Z,99294.41
2023-01-09T11:47:45.377Z,99300.47
2023-01-09T11:50:25.352Z,99305.59
2023-01-09T11:53:17.689Z,99310.88
2023-01-09T11:55:45.244Z,99311.66
2023-01-09T11:58:16.789Z,99310.78
2023-01-09T12:01:20.988Z,99317.69
2023-01-09T12:03:53.389Z,99315.13
2023-01-09T12:06:38.752Z,99309.09
2023-01-09T12:09:07.196Z,99310.00
2023-01-09T12:11:41.457Z,99312.59
2023-01-09T12:14:37.436Z,99307.56
2023-01-09T12:17:41.565Z,99301.56
2023-01-09T12:20:21.148Z,99305.91
2023-01-09T12:23:09.404Z,99303.34
2023-01-09T12:25:45.081Z,99291.38
2023-01-09T12:28:14.472Z,99290.56
2023-01-09T12:31:02.770Z,99297.53
2023-01-09T12:33:42.409Z,99299.34
2023-01-09T12:36:29.801Z,99289.88
2023-01-09T12:39:22.594Z,99288.16
2023-01-09T12:42:19.552Z,99286.38
2023-01-09T12:45:24.956Z,99287.25
2023-01-09T12:47:52.743Z,99282.94
2023-01-09T12:50:29.374Z,99280.41
2023-01-09T12:53:13.936Z,99282.16
2023-01-09T12:55:43.588Z,99283.84
2023-01-09T12:58:31.712Z,99276.94
2023-01-09T13:01:00.319Z,99283.03
2023-01-09T13:03:37.658Z,99290.81
2023-01-09T13:06:06.592Z,99284.88
2023-01-09T13:08:39.650Z,99291.00
2023-01-09T13:11:20.410Z,99292.75
2023-01-09T13:14:06.235Z,99293.63
2023-01-09T13:16:36.577Z,99288.47
2023-01-09T13:19:18.642Z,99291.03
2023-01-09T13:21:45.804Z,99290.09
2023-01-09T13:24:33.729Z,99293.53
2023-01-09T13:27:03.427Z,99290.09
2023-01-09T13:29:37.386Z,99295.25
2023-01-09T13:32:29.433Z,99294.41
2023-01-09T13:34:57.586Z,99293.53
2023-01-09T13:37:27.738Z,99290.97
2023-01-09T13:40:00.227Z,99301.34
2023-01-09T13:42:36.129Z,99294.41
2023-01-09T13:45:26.504Z,99303.88
2023-01-09T13:48:11.818Z,99301.34
2023-01-09T13:50:39.000Z,99305.63
2023-01-09T13:53:17.543Z,99317.69
2023-01-09T13:55:59.593Z,99312.53
2023-01-09T13:58:50.488Z,99314.25
2023-01-09T14:01:36.004Z,99314.25
2023-01-09T14:04:17.745Z,99325.44
2023-01-09T14:07:17.691Z,99322.78
2023-01-09T14:09:50.785Z,99329.69
2023-01-09T14:12:19.529Z,99337.44
2023-01-09T14:14:46.360Z,99336.56
2023-01-09T14:17:27.109Z,99344.31
2023-01-09T14:19:58.821Z,99348.59
2023-01-09T14:22:27.336Z,99347.69
2023-01-09T14:24:56.231Z,99350.28
2023-01-09T14:27:53.747Z,99362.31
2023-01-09T14:30:26.082Z,99354.47
2023-01-09T14:33:17.223Z,99367.38
2023-01-09T14:35:54.426Z,99368.22
2023-01-09T14:38:31.239Z,99365.59
2023-01-09T14:41:06.025Z,99373.38
2023-01-09T14:43:41.045Z,99379.44
2023-01-09T14:46:12.979Z,99381.97
2023-01-09T14:48:57.503Z,99378.47
2023-01-09T14:51:24.379Z,99385.38
2023-01-09T14:53:51.945Z,99389.69
2023-01-09T14:56:30.117Z,99392.28
2023-01-09T14:59:12.604Z,99395.66
2023-01-09T15:01:41.111Z,99399.09
2023-01-09T15:04:27.391Z,99395.56
2023-01-09T15:06:54.032Z,99412.00
2023-01-09T15:09:24.585Z,99409.41
2023-01-09T15:11:53.247Z,99405.09
2023-01-09T15:14:40.497Z,99413.72
2023-01-09T15:17:20.890Z,99414.50
2023-01-09T15:19:48.220Z,99421.34
2023-01-09T15:22:24.199Z,99424.72
2023-01-09T15:24:50.625Z,99421.22
2023-01-09T15:27:24.100Z,99432.44
2023-01-09T15:29:51.615Z,99442.75
2023-01-09T15:32:27.659Z,99441.88
2023-01-09T15:34:55.214Z,99451.31
2023-01-09T15:37:34.759Z,99459.03
2023-01-09T15:40:04.287Z,99456.44
2023-01-09T15:42:52.783Z,99466.78
2023-01-09T15:45:35.216Z,99455.56
2023-01-09T15:48:25.020Z,99458.97
2023-01-09T15:51:10.371Z,99469.25
2023-01-09T15:53:36.979Z,99464.06
2023-01-09T15:56:07.979Z,99463.19
2023-01-09T15:58:36.838Z,99474.34
2023-01-09T16:01:26.092Z,99476.88
2023-01-09T16:03:53.533Z,99472.53
2023-01-09T16:06:28.864Z,99476.81
2023-01-09T16:08:57.776Z,99483.63
2023-01-09T16:11:32.912Z,99484.47
2023-01-09T16:14:12.458Z,99487.03
2023-01-09T16:16:39.389Z,99486.13
2023-01-09T16:19:06.691Z,99485.28
2023-01-09T16:21:35.595Z,99488.69
2023-01-09T16:24:08.485Z,99486.09
2023-01-09T16:26:34.982Z,99489.53
2023-01-09T16:29:27.339Z,99489.47
2023-01-09T16:31:59.719Z,99497.16
2023-01-09T16:34:26.161Z,99491.06
2023-01-09T16:36:52.594Z,99494.44
2023-01-09T16:39:20.788Z,99500.47
2023-01-09T16:42:05.872Z,99493.53
2023-01-09T16:44:32.284Z,99497.81
2023-01-09T16:46:58.916Z,99493.44
2023-01-09T16:49:27.339Z,99497.75
2023-01-09T16:51:54.091Z,99504.63
2023-01-09T16:54:21.037Z,99502.81
2023-01-09T16:56:49.243Z,99510.56
2023-01-09T16:59:20.642Z,99512.28
2023-01-09T17:01:51.074Z,99518.41
2023-01-09T17:04:20.073Z,99526.25
2023-01-09T17:06:48.485Z,99527.19
2023-01-09T17:09:17.310Z,99527.13
2023-01-09T17:11:43.793Z,99531.44
2023-01-09T17:14:13.873Z,99527.09
2023-01-09T17:16:45.969Z,99529.66
2023-01-09T17:19:17.215Z,99530.38
2023-01-09T17:21:43.752Z,99530.31
2023-01-09T17:24:28.937Z,99525.97
2023-01-09T17:27:15.021Z,99528.50
2023-01-09T17:29:42.526Z,99532.78
2023-01-09T17:32:16.829Z,99534.34
2023-01-09T17:34:43.381Z,99536.91
2023-01-09T17:37:17.697Z,99536.00
2023-01-09T17:39:44.600Z,99539.38
2023-01-09T17:42:11.307Z,99551.41
2023-01-09T17:44:37.890Z,99556.53
2023-01-09T17:47:04.422Z,99561.75
2023-01-09T17:49:30.958Z,99569.41
2023-01-09T17:51:57.609Z,99570.22
2023-01-09T17:54:24.115Z,99570.19
2023-01-09T17:56:51.171Z,99585.75
2023-01-09T17:59:18.400Z,99588.25
2023-01-09T18:01:45.253Z,99588.22
2023-01-09T18:04:11.900Z,99582.09
2023-01-09T18:06:38.553Z,99576.06
2023-01-09T18:09:06.223Z,99570.84
2023-01-09T18:11:32.737Z,99578.59
2023-01-09T18:13:59.389Z,99581.09
2023-01-09T18:16:27.713Z,99590.47
2023-01-09T18:18:57.519Z,99591.19
2023-01-09T18:21:26.426Z,99585.91
2023-01-09T18:23:53.085Z,99585.84
2023-01-09T18:26:22.375Z,99592.63
2023-01-09T18:28:51.103Z,99598.53
2023-01-09T18:31:22.057Z,99604.38
2023-01-09T18:33:53.342Z,99610.34
2023-01-09T18:36:22.148Z,99621.41
2023-01-09T18:38:53.365Z,99627.38
2023-01-09T18:41:20.627Z,99627.22
2023-01-09T18:43:51.322Z,99632.25
2023-01-09T18:46:23.942Z,99631.25
2023-01-09T18:48:58.479Z,99641.44
2023-01-09T18:51:26.574Z,99649.09
2023-01-09T18:53:53.933Z,99649.94
2023-01-09T18:56:20.788Z,99651.59
2023-01-09T18:58:48.132Z,99653.25
2023-01-09T19:01:15.453Z,99656.66
2023-01-09T19:03:42.381Z,99671.28
2023-01-09T19:06:09.055Z,99673.00
2023-01-09T19:08:36.170Z,99678.06
2023-01-09T19:11:03.132Z,99686.66
2023-01-09T19:13:35.403Z,99685.78
2023-01-09T19:16:03.263Z,99686.56
2023-01-09T19:18:33.292Z,99696.94
2023-01-09T19:20:59.728Z,99701.19
2023-01-09T19:23:26.278Z,99707.22
2023-01-09T19:25:53.640Z,99709.75
2023-01-09T19:28:21.034Z,99714.03
2023-01-09T19:30:47.501Z,99711.41
2023-01-09T19:33:13.923Z,99715.59
2023-01-09T19:35:40.447Z,99712.97
2023-01-09T19:38:06.912Z,99714.59
2023-01-09T19:40:33.473Z,99713.59
2023-01-09T19:43:00.003Z,99713.59
2023-01-09T19:45:26.550Z,99725.59
2023-01-09T19:47:53.054Z,99721.22
2023-01-09T19:50:19.634Z,99725.53
2023-01-09T19:52:46.143Z,99734.06
2023-01-09T19:55:13.927Z,99732.25
2023-01-09T19:57:42.856Z,99727.81
2023-01-09T20:00:14.369Z,99740.53
2023-01-09T20:02:41.835Z,99743.00
2023-01-09T20:05:09.433Z,99744.44
2023-01-09T20:07:35.994Z,99746.00
2023-01-09T20:10:02.615Z,99751.03
2023-01-09T20:12:29.105Z,99750.16
2023-01-09T20:14:55.587Z,99763.91
2023-01-09T20:17:22.057Z,99774.25
2023-01-09T20:19:48.508Z,99773.41
2023-01-09T20:22:14.997Z,99780.31
2023-01-09T20:24:41.899Z,99779.53
2023-01-09T20:27:08.367Z,99783.72
2023-01-09T20:29:34.866Z,99784.56
2023-01-09T20:32:01.464Z,99784.59
2023-01-09T20:34:28.953Z,99786.25
2023-01-09T20:36:55.440Z,99796.53
2023-01-09T20:39:22.028Z,99805.91
2023-01-09T20:41:48.550Z,99804.94
2023-01-09T20:44:15.857Z,99816.03
2023-01-09T20:46:47.429Z,99818.59
2023-01-09T20:49:16.029Z,99812.50
2023-01-09T20:51:52.801Z,99820.13
2023-01-09T20:54:21.277Z,99825.19
2023-01-09T20:56:48.011Z,99832.88
2023-01-09T20:59:17.208Z,99834.56
2023-01-09T21:01:43.908Z,99830.22
2023-01-09T21:04:10.469Z,99828.44
2023-01-09T21:06:37.388Z,99836.06
2023-01-09T21:09:05.381Z,99843.91
2023-01-09T21:11:33.855Z,99846.38
2023-01-09T21:14:00.359Z,99853.34
2023-01-09T21:16:26.945Z,99861.84
2023-01-09T21:18:54.510Z,99868.59
2023-01-09T21:21:23.450Z,99872.88
2023-01-09T21:23:52.020Z,99883.25
2023-01-09T21:26:22.298Z,99896.91
2023-01-09T21:28:50.248Z,99893.47
2023-01-09T21:31:19.506Z,99895.97
2023-01-09T21:33:46.973Z,99904.53
2023-01-09T21:36:13.621Z,99905.41
2023-01-09T21:38:40.115Z,99911.44
2023-01-09T21:41:25.114Z,99918.38
2023-01-09T21:44:10.207Z,99921.00
2023-01-09T21:46:51.897Z,99925.34
2023-01-09T21:49:19.415Z,99932.19
2023-01-09T21:51:46.285Z,99933.13
2023-01-09T21:54:12.748Z,99946.00
2023-01-09T21:56:39.248Z,99944.38
2023-01-09T21:59:05.732Z,99953.06
2023-01-09T22:01:32.279Z,99956.47
2023-01-09T22:03:59.133Z,99959.09
2023-01-09T22:06:25.907Z,99966.94
2023-01-09T22:08:52.645Z,99966.94
2023-01-09T22:11:19.156Z,99972.06
2023-01-09T22:13:49.423Z,99975.56
2023-01-09T22:16:16.024Z,99991.88
2023-01-09T22:18:42.527Z,99993.63
2023-01-09T22:21:08.976Z,100004.00
2023-01-09T22:23:35.442Z,100008.25
2023-01-09T22:26:09.884Z,100004.75
2023-01-09T22:28:36.376Z,100015.06
2023-01-09T22:31:03.059Z,100018.41
2023-01-09T22:33:29.553Z,100016.56
2023-01-09T22:35:56.090Z,100014.81
2023-01-09T22:38:22.566Z,100019.84
2023-01-09T22:40:50.123Z,100025.81
2023-01-09T22:43:17.319Z,100023.25
2023-01-09T22:45:43.844Z,100038.59
2023-01-09T22:48:10.360Z,100036.84
2023-01-09T22:50:37.218Z,100044.47
2023-01-09T22:53:03.735Z,100044.38
2023-01-09T22:55:30.196Z,100052.88
2023-01-09T22:57:56.649Z,100058.97
2023-01-09T23:00:23.153Z,100061.53
2023-01-09T23:02:49.831Z,100060.72
2023-01-09T23:05:16.719Z,100068.41
2023-01-09T23:07:43.273Z,100063.25
2023-01-09T23:10:10.282Z,100073.56
2023-01-09T23:12:36.774Z,100074.44
2023-01-09T23:15:03.452Z,100076.94
2023-01-09T23:17:29.982Z,100081.22
2023-01-09T23:19:56.431Z,100082.88
2023-01-09T23:22:22.908Z,100091.41
2023-01-09T23:24:49.380Z,100088.78
2023-01-09T23:27:15.859Z,100098.97
2023-01-09T23:29:42.324Z,100105.00
2023-01-09T23:32:08.807Z,100108.41
2023-01-09T23:34:35.456Z,100114.38
2023-01-09T23:37:04.011Z,100112.63
2023-01-09T23:39:30.546Z,100125.50
2023-01-09T23:42:15.580Z,100128.88
2023-01-09T23:44:42.099Z,100123.81
2023-01-09T23:47:08.557Z,100137.56
2023-01-09T23:49:35.036Z,100133.34
2023-01-09T23:52:06.135Z,100144.53
2023-01-09T23:54:32.917Z,100155.03
2023-01-09T23:56:59.381Z,100154.16
2023-01-09T23:59:25.835Z,100154.28
